الصفحة الرئيسية
METAR-TAF:

METAR-TAF

مطار :

بورت مورسبي, بابوا نيو غينياالجديدة

دائرة عرض: 09-26S, خط طول: 147-13E, ارتفاع: 38 متر

مراقبة الطقس الحالي

تاريخ ووقت الإصدار 42 دقيقة قبل الساعة 15:00UTC
ريح 2 عقدة من الشمال/الشمال الغربي
درجة الحرارة 24°درجة مئوية
الرطوبة 89%
ضغط 1009 hPa
الرؤية 10 كم أو أكثر
غيوم قليلة على ارتفاع 1600 قدم
غيوم متفرقة على ارتفاع 7500 قدم

METAR: AYPY 151500Z 33002KT 9999 FEW016 SCT075 24/22 Q1009

زمن: 01:42 (15:42 UTC)

توقعات

تاريخ ووقت الإصدار 13ساعات و 41 دقيقة قبل الساعة 02:01UTC
التوقعات صالحة من15 الساعة 06 UTC إلى 16 الساعة 06 UTC
ريح 7 عقدة من الجنوب
الرؤية 10 كم أو أكثر
غيوم متفرقة على ارتفاع 1800 قدم
غيوم مفككة على ارتفاع 14000 قدم
زخات من الأمطار الخفيفة
من 15 الساعة 1000 UTC
ريح 3 عقدةمن اتجاهات متغيرة
الرؤية 10 كم أو أكثر
غيوم متفرقة على ارتفاع 4000 قدم
غيوم مفككة على ارتفاع 14000 قدم

TAF: AYPY 150201Z 1506/1606 19007KT 9999 -SHRA SCT018 BKN140 FM151000 VRB03KT 9999 SCT040 BKN140

أرصاد الطقس والتوقعات من أكثر من 4000 مطار (تقارير الطقس للمطار METAR والتنبؤ بالطقس بالمطارTAF).

المحطات المتاحة هي النقط الصفراء والحمراء على الخريطة.

حرك المؤشر فوق النقطة لمعرفة اسم المحطة.

ثم انقر لمعرفة أرصاد وتوقعات الطقس.

لتغيير الخارطة: اضغط على الأزرار الخضراء مع رمز الصليب الأسود للتكبير. على الزر الأخضر مع شرطة للتصغير، أو على الأسهم الخضراء للخرائط المجاورة.


METAR-TAF: